sensor_id;sensor_type;location;lat;lon;timestamp;temperature;humidity
9175;DHT22;54374;50.196;8.050;2022-07-23T00:00:19;18.30;99.90
9175;DHT22;54374;50.196;8.050;2022-07-23T00:02:48;18.20;99.90
9175;DHT22;54374;50.196;8.050;2022-07-23T00:05:15;18.20;99.90
9175;DHT22;54374;50.196;8.050;2022-07-23T00:07:42;18.20;99.90
9175;DHT22;54374;50.196;8.050;2022-07-23T00:10:09;18.10;99.90
9175;DHT22;54374;50.196;8.050;2022-07-23T00:12:37;18.20;99.90
9175;DHT22;54374;50.196;8.050;2022-07-23T00:15:05;18.20;99.90
9175;DHT22;54374;50.196;8.050;2022-07-23T00:17:33;18.20;99.90
9175;DHT22;54374;50.196;8.050;2022-07-23T00:20:01;18.30;99.90
9175;DHT22;54374;50.196;8.050;2022-07-23T00:22:29;18.30;99.90
9175;DHT22;54374;50.196;8.050;2022-07-23T00:24:56;18.30;99.90
9175;DHT22;54374;50.196;8.050;2022-07-23T00:27:23;18.40;99.90
9175;DHT22;54374;50.196;8.050;2022-07-23T00:29:50;18.40;99.90
9175;DHT22;54374;50.196;8.050;2022-07-23T00:32:18;18.50;99.90
9175;DHT22;54374;50.196;8.050;2022-07-23T00:34:45;18.50;99.90
9175;DHT22;54374;50.196;8.050;2022-07-23T00:37:13;18.50;99.90
9175;DHT22;54374;50.196;8.050;2022-07-23T00:39:40;18.60;99.90
9175;DHT22;54374;50.196;8.050;2022-07-23T00:42:08;18.50;99.90
9175;DHT22;54374;50.196;8.050;2022-07-23T00:44:35;18.40;99.90
9175;DHT22;54374;50.196;8.050;2022-07-23T00:47:02;18.40;99.90
9175;DHT22;54374;50.196;8.050;2022-07-23T00:49:31;18.30;99.90
9175;DHT22;54374;50.196;8.050;2022-07-23T00:52:00;18.40;99.90
9175;DHT22;54374;50.196;8.050;2022-07-23T00:54:29;18.40;99.90
9175;DHT22;54374;50.196;8.050;2022-07-23T00:56:57;18.40;99.90
9175;DHT22;54374;50.196;8.050;2022-07-23T00:59:24;18.40;99.90
9175;DHT22;54374;50.196;8.050;2022-07-23T01:01:51;18.40;99.90
9175;DHT22;54374;50.196;8.050;2022-07-23T01:04:18;18.40;99.90
9175;DHT22;54374;50.196;8.050;2022-07-23T01:06:45;18.30;99.90
9175;DHT22;54374;50.196;8.050;2022-07-23T01:09:12;18.40;99.90
9175;DHT22;54374;50.196;8.050;2022-07-23T01:11:41;18.50;99.90
9175;DHT22;54374;50.196;8.050;2022-07-23T01:14:11;18.50;99.90
9175;DHT22;54374;50.196;8.050;2022-07-23T01:16:39;18.50;99.90
9175;DHT22;54374;50.196;8.050;2022-07-23T01:19:07;18.50;99.90
9175;DHT22;54374;50.196;8.050;2022-07-23T01:21:38;18.40;99.90
9175;DHT22;54374;50.196;8.050;2022-07-23T01:24:09;18.30;99.90
9175;DHT22;54374;50.196;8.050;2022-07-23T01:26:43;18.20;99.90
9175;DHT22;54374;50.196;8.050;2022-07-23T01:29:11;18.10;99.90
9175;DHT22;54374;50.196;8.050;2022-07-23T01:31:39;18.20;99.90
9175;DHT22;54374;50.196;8.050;2022-07-23T01:34:06;18.20;99.90
9175;DHT22;54374;50.196;8.050;2022-07-23T01:36:34;18.20;99.90
9175;DHT22;54374;50.196;8.050;2022-07-23T01:39:05;18.10;99.90
9175;DHT22;54374;50.196;8.050;2022-07-23T01:41:35;18.00;99.90
9175;DHT22;54374;50.196;8.050;2022-07-23T01:44:03;17.90;99.90
9175;DHT22;54374;50.196;8.050;2022-07-23T01:46:30;17.80;99.90
9175;DHT22;54374;50.196;8.050;2022-07-23T01:48:57;17.80;99.90
9175;DHT22;54374;50.196;8.050;2022-07-23T01:51:53;17.80;99.90
9175;DHT22;54374;50.196;8.050;2022-07-23T01:54:34;17.80;99.90
9175;DHT22;54374;50.196;8.050;2022-07-23T01:57:05;17.80;99.90
9175;DHT22;54374;50.196;8.050;2022-07-23T01:59:32;17.80;99.90
9175;DHT22;54374;50.196;8.050;2022-07-23T02:02:00;17.80;99.90
9175;DHT22;54374;50.196;8.050;2022-07-23T02:04:32;17.80;99.90
9175;DHT22;54374;50.196;8.050;2022-07-23T02:07:03;17.90;99.90
9175;DHT22;54374;50.196;8.050;2022-07-23T02:09:30;17.90;99.90
9175;DHT22;54374;50.196;8.050;2022-07-23T02:11:57;17.80;99.90
9175;DHT22;54374;50.196;8.050;2022-07-23T02:14:26;17.80;99.90
9175;DHT22;54374;50.196;8.050;2022-07-23T02:16:53;17.80;99.90
9175;DHT22;54374;50.196;8.050;2022-07-23T02:19:20;17.70;99.90
9175;DHT22;54374;50.196;8.050;2022-07-23T02:21:48;17.60;99.90
9175;DHT22;54374;50.196;8.050;2022-07-23T02:24:15;17.50;99.90
9175;DHT22;54374;50.196;8.050;2022-07-23T02:26:42;17.50;99.90
9175;DHT22;54374;50.196;8.050;2022-07-23T02:29:11;17.40;99.90
9175;DHT22;54374;50.196;8.050;2022-07-23T02:31:39;17.30;99.90
9175;DHT22;54374;50.196;8.050;2022-07-23T02:34:07;17.30;99.90
9175;DHT22;54374;50.196;8.050;2022-07-23T02:36:37;17.30;99.90
9175;DHT22;54374;50.196;8.050;2022-07-23T02:39:05;17.20;99.90
9175;DHT22;54374;50.196;8.050;2022-07-23T02:41:34;17.20;99.90
9175;DHT22;54374;50.196;8.050;2022-07-23T02:44:02;17.00;99.90
9175;DHT22;54374;50.196;8.050;2022-07-23T02:46:29;17.10;99.90
9175;DHT22;54374;50.196;8.050;2022-07-23T02:48:58;17.00;99.90
9175;DHT22;54374;50.196;8.050;2022-07-23T02:51:25;16.90;99.90
9175;DHT22;54374;50.196;8.050;2022-07-23T02:53:57;16.80;99.90
9175;DHT22;54374;50.196;8.050;2022-07-23T02:56:24;16.80;99.90
9175;DHT22;54374;50.196;8.050;2022-07-23T02:58:51;16.80;99.90
9175;DHT22;54374;50.196;8.050;2022-07-23T03:01:21;16.70;99.90
9175;DHT22;54374;50.196;8.050;2022-07-23T03:03:48;16.70;99.90
9175;DHT22;54374;50.196;8.050;2022-07-23T03:06:16;16.70;99.90
9175;DHT22;54374;50.196;8.050;2022-07-23T03:08:44;16.80;99.90
9175;DHT22;54374;50.196;8.050;2022-07-23T03:11:11;16.80;99.90
9175;DHT22;54374;50.196;8.050;2022-07-23T03:13:40;16.90;99.90
9175;DHT22;54374;50.196;8.050;2022-07-23T03:16:08;16.80;99.90
9175;DHT22;54374;50.196;8.050;2022-07-23T03:18:37;16.80;99.90
9175;DHT22;54374;50.196;8.050;2022-07-23T03:21:04;16.70;99.90
9175;DHT22;54374;50.196;8.050;2022-07-23T03:23:32;16.70;99.90
9175;DHT22;54374;50.196;8.050;2022-07-23T03:25:59;16.50;99.90
9175;DHT22;54374;50.196;8.050;2022-07-23T03:28:29;16.50;99.90
9175;DHT22;54374;50.196;8.050;2022-07-23T03:30:58;16.50;99.90
9175;DHT22;54374;50.196;8.050;2022-07-23T03:33:25;16.50;99.90
9175;DHT22;54374;50.196;8.050;2022-07-23T03:35:53;16.60;99.90
9175;DHT22;54374;50.196;8.050;2022-07-23T03:38:24;16.60;99.90
9175;DHT22;54374;50.196;8.050;2022-07-23T03:40:54;16.60;99.90
9175;DHT22;54374;50.196;8.050;2022-07-23T03:43:21;16.60;99.90
9175;DHT22;54374;50.196;8.050;2022-07-23T03:45:50;16.50;99.90
9175;DHT22;54374;50.196;8.050;2022-07-23T03:48:17;16.50;99.90
9175;DHT22;54374;50.196;8.050;2022-07-23T03:50:44;16.90;99.90
9175;DHT22;54374;50.196;8.050;2022-07-23T03:53:12;16.50;99.90
9175;DHT22;54374;50.196;8.050;2022-07-23T03:55:39;16.40;99.90
9175;DHT22;54374;50.196;8.050;2022-07-23T03:58:07;16.40;99.90
9175;DHT22;54374;50.196;8.050;2022-07-23T04:00:35;16.40;99.90
9175;DHT22;54374;50.196;8.050;2022-07-23T04:03:03;16.40;99.90
9175;DHT22;54374;50.196;8.050;2022-07-23T04:05:30;16.50;99.90
9175;DHT22;54374;50.196;8.050;2022-07-23T04:08:07;16.50;99.90
9175;DHT22;54374;50.196;8.050;2022-07-23T04:10:39;16.50;99.90
9175;DHT22;54374;50.196;8.050;2022-07-23T04:13:09;16.50;99.90
9175;DHT22;54374;50.196;8.050;2022-07-23T04:15:36;16.50;99.90
9175;DHT22;54374;50.196;8.050;2022-07-23T04:18:04;16.50;99.90
9175;DHT22;54374;50.196;8.050;2022-07-23T04:20:42;16.50;99.90
9175;DHT22;54374;50.196;8.050;2022-07-23T04:23:09;16.60;99.90
9175;DHT22;54374;50.196;8.050;2022-07-23T04:25:37;16.70;99.90
9175;DHT22;54374;50.196;8.050;2022-07-23T04:28:05;16.70;99.90
9175;DHT22;54374;50.196;8.050;2022-07-23T04:30:33;16.70;99.90
9175;DHT22;54374;50.196;8.050;2022-07-23T04:33:01;16.70;99.90
9175;DHT22;54374;50.196;8.050;2022-07-23T04:35:31;16.70;99.90
9175;DHT22;54374;50.196;8.050;2022-07-23T04:38:09;16.70;99.90
9175;DHT22;54374;50.196;8.050;2022-07-23T04:40:36;16.80;99.90
9175;DHT22;54374;50.196;8.050;2022-07-23T04:43:03;16.80;99.90
9175;DHT22;54374;50.196;8.050;2022-07-23T04:45:34;16.90;99.90
9175;DHT22;54374;50.196;8.050;2022-07-23T04:48:02;16.90;99.90
9175;DHT22;54374;50.196;8.050;2022-07-23T04:50:29;16.90;99.90
9175;DHT22;54374;50.196;8.050;2022-07-23T04:52:57;17.00;99.90
9175;DHT22;54374;50.196;8.050;2022-07-23T04:55:28;17.00;99.90
9175;DHT22;54374;50.196;8.050;2022-07-23T04:57:55;17.10;99.90
9175;DHT22;54374;50.196;8.050;2022-07-23T05:00:22;17.30;99.90
9175;DHT22;54374;50.196;8.050;2022-07-23T05:02:51;17.40;99.90
9175;DHT22;54374;50.196;8.050;2022-07-23T05:05:18;17.40;99.90
9175;DHT22;54374;50.196;8.050;2022-07-23T05:07:45;17.50;99.90
9175;DHT22;54374;50.196;8.050;2022-07-23T05:10:12;17.60;99.90
9175;DHT22;54374;50.196;8.050;2022-07-23T05:12:40;17.60;99.90
9175;DHT22;54374;50.196;8.050;2022-07-23T05:15:07;17.60;99.90
9175;DHT22;54374;50.196;8.050;2022-07-23T05:17:34;17.70;99.90
9175;DHT22;54374;50.196;8.050;2022-07-23T05:20:08;17.70;99.90
9175;DHT22;54374;50.196;8.050;2022-07-23T05:22:35;17.80;99.90
9175;DHT22;54374;50.196;8.050;2022-07-23T05:25:03;17.90;99.90
9175;DHT22;54374;50.196;8.050;2022-07-23T05:27:30;18.00;99.90
9175;DHT22;54374;50.196;8.050;2022-07-23T05:29:58;18.00;99.90
9175;DHT22;54374;50.196;8.050;2022-07-23T05:32:25;18.10;99.90
9175;DHT22;54374;50.196;8.050;2022-07-23T05:35:07;18.10;99.90
9175;DHT22;54374;50.196;8.050;2022-07-23T05:37:39;18.10;99.90
9175;DHT22;54374;50.196;8.050;2022-07-23T05:40:08;18.00;99.90
9175;DHT22;54374;50.196;8.050;2022-07-23T05:42:37;18.00;99.90
9175;DHT22;54374;50.196;8.050;2022-07-23T05:45:06;18.10;99.90
9175;DHT22;54374;50.196;8.050;2022-07-23T05:47:42;18.20;99.90
9175;DHT22;54374;50.196;8.050;2022-07-23T05:50:12;18.30;99.90
9175;DHT22;54374;50.196;8.050;2022-07-23T05:52:44;18.50;99.90
9175;DHT22;54374;50.196;8.050;2022-07-23T05:55:40;18.70;99.90
9175;DHT22;54374;50.196;8.050;2022-07-23T05:58:07;18.80;99.90
9175;DHT22;54374;50.196;8.050;2022-07-23T06:00:35;19.00;99.90
9175;DHT22;54374;50.196;8.050;2022-07-23T06:03:04;19.10;99.90
9175;DHT22;54374;50.196;8.050;2022-07-23T06:05:33;19.20;99.90
9175;DHT22;54374;50.196;8.050;2022-07-23T06:08:00;19.30;99.90
9175;DHT22;54374;50.196;8.050;2022-07-23T06:10:29;19.30;99.90
9175;DHT22;54374;50.196;8.050;2022-07-23T06:12:56;19.30;99.90
9175;DHT22;54374;50.196;8.050;2022-07-23T06:15:24;19.30;99.90
9175;DHT22;54374;50.196;8.050;2022-07-23T06:17:51;19.40;99.90
9175;DHT22;54374;50.196;8.050;2022-07-23T06:20:18;19.40;99.90
9175;DHT22;54374;50.196;8.050;2022-07-23T06:22:47;19.50;99.90
9175;DHT22;54374;50.196;8.050;2022-07-23T06:25:14;19.70;99.90
9175;DHT22;54374;50.196;8.050;2022-07-23T06:27:43;19.80;99.90
9175;DHT22;54374;50.196;8.050;2022-07-23T06:30:12;19.90;99.90
9175;DHT22;54374;50.196;8.050;2022-07-23T06:32:41;19.80;99.90
9175;DHT22;54374;50.196;8.050;2022-07-23T06:35:08;19.80;99.90
9175;DHT22;54374;50.196;8.050;2022-07-23T06:37:35;19.80;99.90
9175;DHT22;54374;50.196;8.050;2022-07-23T06:40:05;19.90;99.90
9175;DHT22;54374;50.196;8.050;2022-07-23T06:42:36;19.90;99.90
9175;DHT22;54374;50.196;8.050;2022-07-23T06:45:06;19.90;99.90
9175;DHT22;54374;50.196;8.050;2022-07-23T06:47:35;19.90;99.90
9175;DHT22;54374;50.196;8.050;2022-07-23T06:50:03;20.00;99.90
9175;DHT22;54374;50.196;8.050;2022-07-23T06:52:30;20.10;99.90
9175;DHT22;54374;50.196;8.050;2022-07-23T06:55:00;20.30;99.90
9175;DHT22;54374;50.196;8.050;2022-07-23T06:57:29;20.40;99.90
9175;DHT22;54374;50.196;8.050;2022-07-23T06:59:57;20.30;99.90
9175;DHT22;54374;50.196;8.050;2022-07-23T07:02:25;20.30;99.90
9175;DHT22;54374;50.196;8.050;2022-07-23T07:04:54;20.40;99.90
9175;DHT22;54374;50.196;8.050;2022-07-23T07:07:21;20.50;99.90
9175;DHT22;54374;50.196;8.050;2022-07-23T07:09:49;20.60;99.90
9175;DHT22;54374;50.196;8.050;2022-07-23T07:12:16;20.60;99.90
9175;DHT22;54374;50.196;8.050;2022-07-23T07:14:45;20.60;99.90
9175;DHT22;54374;50.196;8.050;2022-07-23T07:17:15;20.70;99.90
9175;DHT22;54374;50.196;8.050;2022-07-23T07:19:42;21.00;99.90
9175;DHT22;54374;50.196;8.050;2022-07-23T07:22:09;21.30;99.90
9175;DHT22;54374;50.196;8.050;2022-07-23T07:24:36;21.40;99.90
9175;DHT22;54374;50.196;8.050;2022-07-23T07:27:03;21.60;99.90
9175;DHT22;54374;50.196;8.050;2022-07-23T07:29:31;21.60;99.90
9175;DHT22;54374;50.196;8.050;2022-07-23T07:31:59;21.50;99.90
9175;DHT22;54374;50.196;8.050;2022-07-23T07:34:27;21.40;99.90
9175;DHT22;54374;50.196;8.050;2022-07-23T07:36:54;21.50;99.90
9175;DHT22;54374;50.196;8.050;2022-07-23T07:39:21;21.40;99.90
9175;DHT22;54374;50.196;8.050;2022-07-23T07:41:48;21.30;99.90
9175;DHT22;54374;50.196;8.050;2022-07-23T07:44:15;21.30;99.90
9175;DHT22;54374;50.196;8.050;2022-07-23T07:46:42;21.40;99.90
9175;DHT22;54374;50.196;8.050;2022-07-23T07:49:10;21.50;99.90
9175;DHT22;54374;50.196;8.050;2022-07-23T07:51:37;21.70;99.90
9175;DHT22;54374;50.196;8.050;2022-07-23T07:54:13;21.80;99.90
9175;DHT22;54374;50.196;8.050;2022-07-23T07:56:40;21.90;99.90
9175;DHT22;54374;50.196;8.050;2022-07-23T07:59:07;21.90;99.90
9175;DHT22;54374;50.196;8.050;2022-07-23T08:01:34;21.90;99.90
9175;DHT22;54374;50.196;8.050;2022-07-23T08:04:01;22.10;99.90
9175;DHT22;54374;50.196;8.050;2022-07-23T08:06:30;22.20;99.90
9175;DHT22;54374;50.196;8.050;2022-07-23T08:08:57;22.20;99.90
9175;DHT22;54374;50.196;8.050;2022-07-23T08:11:25;22.20;99.90
9175;DHT22;54374;50.196;8.050;2022-07-23T08:13:55;22.00;99.90
9175;DHT22;54374;50.196;8.050;2022-07-23T08:16:22;22.00;99.90
9175;DHT22;54374;50.196;8.050;2022-07-23T08:18:49;21.90;99.90
9175;DHT22;54374;50.196;8.050;2022-07-23T08:21:16;21.80;99.90
9175;DHT22;54374;50.196;8.050;2022-07-23T08:23:45;21.70;99.90
9175;DHT22;54374;50.196;8.050;2022-07-23T08:26:14;21.90;99.90
9175;DHT22;54374;50.196;8.050;2022-07-23T08:28:41;22.00;99.90
9175;DHT22;54374;50.196;8.050;2022-07-23T08:31:08;22.10;99.90
9175;DHT22;54374;50.196;8.050;2022-07-23T08:33:37;22.10;99.90
9175;DHT22;54374;50.196;8.050;2022-07-23T08:36:05;22.00;99.90
9175;DHT22;54374;50.196;8.050;2022-07-23T08:38:32;22.10;99.90
9175;DHT22;54374;50.196;8.050;2022-07-23T08:41:03;22.00;99.90
9175;DHT22;54374;50.196;8.050;2022-07-23T08:43:32;21.80;99.90
9175;DHT22;54374;50.196;8.050;2022-07-23T08:46:02;21.80;99.90
9175;DHT22;54374;50.196;8.050;2022-07-23T08:48:32;21.90;99.90
9175;DHT22;54374;50.196;8.050;2022-07-23T08:51:00;22.00;99.90
9175;DHT22;54374;50.196;8.050;2022-07-23T08:53:32;22.00;99.90
9175;DHT22;54374;50.196;8.050;2022-07-23T08:56:04;22.00;99.90
9175;DHT22;54374;50.196;8.050;2022-07-23T08:58:32;21.90;99.90
9175;DHT22;54374;50.196;8.050;2022-07-23T09:00:59;21.80;99.90
9175;DHT22;54374;50.196;8.050;2022-07-23T09:03:28;21.80;99.90
9175;DHT22;54374;50.196;8.050;2022-07-23T09:05:57;21.80;99.90
9175;DHT22;54374;50.196;8.050;2022-07-23T09:08:25;21.80;99.90
9175;DHT22;54374;50.196;8.050;2022-07-23T09:10:54;21.80;99.90
9175;DHT22;54374;50.196;8.050;2022-07-23T09:13:34;21.80;99.90
9175;DHT22;54374;50.196;8.050;2022-07-23T09:16:05;22.10;99.90
9175;DHT22;54374;50.196;8.050;2022-07-23T09:18:45;22.40;99.90
9175;DHT22;54374;50.196;8.050;2022-07-23T09:21:22;22.50;99.90
9175;DHT22;54374;50.196;8.050;2022-07-23T09:23:52;22.50;99.90
9175;DHT22;54374;50.196;8.050;2022-07-23T09:26:31;22.50;99.90
9175;DHT22;54374;50.196;8.050;2022-07-23T09:29:04;22.50;99.90
9175;DHT22;54374;50.196;8.050;2022-07-23T09:31:35;22.50;99.90
9175;DHT22;54374;50.196;8.050;2022-07-23T09:34:10;22.50;99.90
9175;DHT22;54374;50.196;8.050;2022-07-23T09:36:38;22.50;99.90
9175;DHT22;54374;50.196;8.050;2022-07-23T09:39:06;22.40;99.90
9175;DHT22;54374;50.196;8.050;2022-07-23T09:41:39;22.60;99.90
9175;DHT22;54374;50.196;8.050;2022-07-23T09:44:09;22.60;99.90
9175;DHT22;54374;50.196;8.050;2022-07-23T09:46:38;22.50;99.90
9175;DHT22;54374;50.196;8.050;2022-07-23T09:49:15;22.70;99.90
9175;DHT22;54374;50.196;8.050;2022-07-23T09:51:47;22.80;99.90
9175;DHT22;54374;50.196;8.050;2022-07-23T09:54:32;23.00;99.90
9175;DHT22;54374;50.196;8.050;2022-07-23T09:57:04;23.00;99.90
9175;DHT22;54374;50.196;8.050;2022-07-23T09:59:37;23.20;99.90
9175;DHT22;54374;50.196;8.050;2022-07-23T10:02:06;23.20;99.90
9175;DHT22;54374;50.196;8.050;2022-07-23T10:04:45;23.20;99.90
9175;DHT22;54374;50.196;8.050;2022-07-23T10:07:21;23.20;99.90
9175;DHT22;54374;50.196;8.050;2022-07-23T10:10:22;23.30;99.90
9175;DHT22;54374;50.196;8.050;2022-07-23T10:13:10;23.50;99.90
9175;DHT22;54374;50.196;8.050;2022-07-23T10:15:56;23.70;99.90
9175;DHT22;54374;50.196;8.050;2022-07-23T10:18:26;23.70;99.90
9175;DHT22;54374;50.196;8.050;2022-07-23T10:20:53;23.70;99.90
9175;DHT22;54374;50.196;8.050;2022-07-23T10:23:28;23.70;99.90
9175;DHT22;54374;50.196;8.050;2022-07-23T10:26:03;23.70;99.90
9175;DHT22;54374;50.196;8.050;2022-07-23T10:28:45;23.80;99.90
9175;DHT22;54374;50.196;8.050;2022-07-23T10:31:35;23.90;99.90
9175;DHT22;54374;50.196;8.050;2022-07-23T10:34:14;24.00;99.90
9175;DHT22;54374;50.196;8.050;2022-07-23T10:36:48;24.10;99.90
9175;DHT22;54374;50.196;8.050;2022-07-23T10:39:19;24.00;99.90
9175;DHT22;54374;50.196;8.050;2022-07-23T10:41:49;23.90;99.90
9175;DHT22;54374;50.196;8.050;2022-07-23T10:44:18;23.80;99.90
9175;DHT22;54374;50.196;8.050;2022-07-23T10:46:57;23.90;99.90
9175;DHT22;54374;50.196;8.050;2022-07-23T10:49:41;24.00;99.90
9175;DHT22;54374;50.196;8.050;2022-07-23T10:52:25;24.20;99.90
9175;DHT22;54374;50.196;8.050;2022-07-23T10:54:54;24.20;99.90
9175;DHT22;54374;50.196;8.050;2022-07-23T10:57:24;24.10;99.90
9175;DHT22;54374;50.196;8.050;2022-07-23T11:00:20;24.10;99.90
9175;DHT22;54374;50.196;8.050;2022-07-23T11:02:50;24.10;99.90
9175;DHT22;54374;50.196;8.050;2022-07-23T11:05:19;24.10;99.90
9175;DHT22;54374;50.196;8.050;2022-07-23T11:08:10;24.10;99.90
9175;DHT22;54374;50.196;8.050;2022-07-23T11:10:39;24.10;99.90
9175;DHT22;54374;50.196;8.050;2022-07-23T11:13:30;24.00;99.90
9175;DHT22;54374;50.196;8.050;2022-07-23T11:16:13;24.00;99.90
9175;DHT22;54374;50.196;8.050;2022-07-23T11:21:46;24.20;99.90
9175;DHT22;54374;50.196;8.050;2022-07-23T11:24:21;24.30;99.90
9175;DHT22;54374;50.196;8.050;2022-07-23T11:27:02;24.40;99.90
9175;DHT22;54374;50.196;8.050;2022-07-23T11:29:43;24.50;99.90
9175;DHT22;54374;50.196;8.050;2022-07-23T11:32:28;24.50;99.90
9175;DHT22;54374;50.196;8.050;2022-07-23T11:34:57;24.50;99.90
9175;DHT22;54374;50.196;8.050;2022-07-23T11:37:42;24.60;99.90
9175;DHT22;54374;50.196;8.050;2022-07-23T11:40:12;24.60;99.90
9175;DHT22;54374;50.196;8.050;2022-07-23T11:42:52;24.60;99.90
9175;DHT22;54374;50.196;8.050;2022-07-23T11:45:19;24.70;99.90
9175;DHT22;54374;50.196;8.050;2022-07-23T11:47:46;24.70;99.90
9175;DHT22;54374;50.196;8.050;2022-07-23T11:50:15;24.60;99.90
9175;DHT22;54374;50.196;8.050;2022-07-23T11:52:42;24.70;99.90
9175;DHT22;54374;50.196;8.050;2022-07-23T11:55:11;24.70;99.90
9175;DHT22;54374;50.196;8.050;2022-07-23T11:57:41;24.70;99.90
9175;DHT22;54374;50.196;8.050;2022-07-23T12:00:09;24.60;99.90
9175;DHT22;54374;50.196;8.050;2022-07-23T12:02:41;24.50;99.90
9175;DHT22;54374;50.196;8.050;2022-07-23T12:05:11;24.80;99.90
9175;DHT22;54374;50.196;8.050;2022-07-23T12:07:42;24.90;99.90
9175;DHT22;54374;50.196;8.050;2022-07-23T12:10:13;25.10;99.90
9175;DHT22;54374;50.196;8.050;2022-07-23T12:12:43;25.10;99.90
9175;DHT22;54374;50.196;8.050;2022-07-23T12:15:11;25.20;99.90
9175;DHT22;54374;50.196;8.050;2022-07-23T12:17:41;25.00;99.90
9175;DHT22;54374;50.196;8.050;2022-07-23T12:20:13;24.90;99.90
9175;DHT22;54374;50.196;8.050;2022-07-23T12:22:45;24.90;99.90
9175;DHT22;54374;50.196;8.050;2022-07-23T12:25:14;24.90;99.90
9175;DHT22;54374;50.196;8.050;2022-07-23T12:27:42;24.90;99.90
9175;DHT22;54374;50.196;8.050;2022-07-23T12:30:17;24.80;99.90
9175;DHT22;54374;50.196;8.050;2022-07-23T12:32:45;24.90;99.90
9175;DHT22;54374;50.196;8.050;2022-07-23T12:35:12;25.00;99.90
9175;DHT22;54374;50.196;8.050;2022-07-23T12:37:41;25.20;99.90
9175;DHT22;54374;50.196;8.050;2022-07-23T12:40:24;25.30;99.90
9175;DHT22;54374;50.196;8.050;2022-07-23T12:42:53;25.30;99.90
9175;DHT22;54374;50.196;8.050;2022-07-23T12:45:25;25.30;99.90
9175;DHT22;54374;50.196;8.050;2022-07-23T12:47:55;25.40;99.90
9175;DHT22;54374;50.196;8.050;2022-07-23T12:50:38;25.50;99.90
9175;DHT22;54374;50.196;8.050;2022-07-23T12:53:12;25.60;99.90
9175;DHT22;54374;50.196;8.050;2022-07-23T12:55:43;25.60;99.90
9175;DHT22;54374;50.196;8.050;2022-07-23T12:58:13;25.80;99.90
9175;DHT22;54374;50.196;8.050;2022-07-23T13:00:53;25.90;99.90
9175;DHT22;54374;50.196;8.050;2022-07-23T13:03:25;26.00;99.90
9175;DHT22;54374;50.196;8.050;2022-07-23T13:05:53;26.00;99.90
9175;DHT22;54374;50.196;8.050;2022-07-23T13:08:20;26.20;99.90
9175;DHT22;54374;50.196;8.050;2022-07-23T13:10:52;26.30;99.90
9175;DHT22;54374;50.196;8.050;2022-07-23T13:13:21;26.20;99.90
9175;DHT22;54374;50.196;8.050;2022-07-23T13:15:48;26.10;99.90
9175;DHT22;54374;50.196;8.050;2022-07-23T13:18:16;26.10;99.40
9175;DHT22;54374;50.196;8.050;2022-07-23T13:20:44;26.00;99.10
9175;DHT22;54374;50.196;8.050;2022-07-23T13:23:12;26.20;98.30
9175;DHT22;54374;50.196;8.050;2022-07-23T13:25:39;26.30;99.40
9175;DHT22;54374;50.196;8.050;2022-07-23T13:28:08;26.40;99.60
9175;DHT22;54374;50.196;8.050;2022-07-23T13:30:35;26.70;99.40
9175;DHT22;54374;50.196;8.050;2022-07-23T13:33:05;26.80;97.60
9175;DHT22;54374;50.196;8.050;2022-07-23T13:35:33;26.80;97.30
9175;DHT22;54374;50.196;8.050;2022-07-23T13:38:01;27.00;97.60
9175;DHT22;54374;50.196;8.050;2022-07-23T13:40:28;27.10;97.90
9175;DHT22;54374;50.196;8.050;2022-07-23T13:42:55;27.10;97.90
9175;DHT22;54374;50.196;8.050;2022-07-23T13:45:24;26.80;98.00
9175;DHT22;54374;50.196;8.050;2022-07-23T13:47:51;26.70;98.10
9175;DHT22;54374;50.196;8.050;2022-07-23T13:50:18;26.70;98.00
9175;DHT22;54374;50.196;8.050;2022-07-23T13:52:45;26.70;98.70
9175;DHT22;54374;50.196;8.050;2022-07-23T13:55:12;26.80;98.00
9175;DHT22;54374;50.196;8.050;2022-07-23T13:57:39;26.70;97.60
9175;DHT22;54374;50.196;8.050;2022-07-23T14:00:11;26.80;98.00
9175;DHT22;54374;50.196;8.050;2022-07-23T14:02:40;26.90;97.60
9175;DHT22;54374;50.196;8.050;2022-07-23T14:05:10;26.80;97.10
9175;DHT22;54374;50.196;8.050;2022-07-23T14:07:38;26.70;97.60
9175;DHT22;54374;50.196;8.050;2022-07-23T14:10:07;26.70;97.10
9175;DHT22;54374;50.196;8.050;2022-07-23T14:12:35;26.70;96.80
9175;DHT22;54374;50.196;8.050;2022-07-23T14:15:03;26.60;96.40
9175;DHT22;54374;50.196;8.050;2022-07-23T14:17:31;26.60;96.10
9175;DHT22;54374;50.196;8.050;2022-07-23T14:20:00;26.50;96.60
9175;DHT22;54374;50.196;8.050;2022-07-23T14:22:27;26.50;96.40
9175;DHT22;54374;50.196;8.050;2022-07-23T14:24:54;26.40;96.00
9175;DHT22;54374;50.196;8.050;2022-07-23T14:27:23;26.50;96.30
9175;DHT22;54374;50.196;8.050;2022-07-23T14:29:51;26.60;96.20
9175;DHT22;54374;50.196;8.050;2022-07-23T14:32:18;26.70;95.70
9175;DHT22;54374;50.196;8.050;2022-07-23T14:34:46;26.60;95.70
9175;DHT22;54374;50.196;8.050;2022-07-23T14:37:15;26.50;96.20
9175;DHT22;54374;50.196;8.050;2022-07-23T14:39:42;26.40;95.60
9175;DHT22;54374;50.196;8.050;2022-07-23T14:42:10;26.40;96.30
9175;DHT22;54374;50.196;8.050;2022-07-23T14:44:38;26.50;95.40
9175;DHT22;54374;50.196;8.050;2022-07-23T14:47:05;26.40;94.70
9175;DHT22;54374;50.196;8.050;2022-07-23T14:49:32;26.30;95.30
9175;DHT22;54374;50.196;8.050;2022-07-23T14:52:00;26.30;95.80
9175;DHT22;54374;50.196;8.050;2022-07-23T14:54:28;26.30;95.50
9175;DHT22;54374;50.196;8.050;2022-07-23T14:56:57;26.40;95.70
9175;DHT22;54374;50.196;8.050;2022-07-23T14:59:25;26.50;94.60
9175;DHT22;54374;50.196;8.050;2022-07-23T15:01:52;26.50;95.10
9175;DHT22;54374;50.196;8.050;2022-07-23T15:04:20;26.60;95.80
9175;DHT22;54374;50.196;8.050;2022-07-23T15:06:48;26.70;94.70
9175;DHT22;54374;50.196;8.050;2022-07-23T15:09:15;26.70;94.30
9175;DHT22;54374;50.196;8.050;2022-07-23T15:11:43;26.50;94.40
9175;DHT22;54374;50.196;8.050;2022-07-23T15:14:11;26.50;95.40
9175;DHT22;54374;50.196;8.050;2022-07-23T15:16:38;26.50;95.70
9175;DHT22;54374;50.196;8.050;2022-07-23T15:19:05;26.50;96.00
9175;DHT22;54374;50.196;8.050;2022-07-23T15:21:32;26.60;96.50
9175;DHT22;54374;50.196;8.050;2022-07-23T15:23:59;26.60;94.80
9175;DHT22;54374;50.196;8.050;2022-07-23T15:26:28;26.50;95.00
9175;DHT22;54374;50.196;8.050;2022-07-23T15:28:57;26.50;95.10
9175;DHT22;54374;50.196;8.050;2022-07-23T15:31:25;26.40;95.60
9175;DHT22;54374;50.196;8.050;2022-07-23T15:33:52;26.50;95.40
9175;DHT22;54374;50.196;8.050;2022-07-23T15:36:19;26.50;96.40
9175;DHT22;54374;50.196;8.050;2022-07-23T15:38:47;26.50;95.80
9175;DHT22;54374;50.196;8.050;2022-07-23T15:41:14;26.60;95.60
9175;DHT22;54374;50.196;8.050;2022-07-23T15:43:41;26.60;96.20
9175;DHT22;54374;50.196;8.050;2022-07-23T15:46:10;26.70;94.90
9175;DHT22;54374;50.196;8.050;2022-07-23T15:48:37;26.70;94.10
9175;DHT22;54374;50.196;8.050;2022-07-23T15:51:05;26.70;94.10
9175;DHT22;54374;50.196;8.050;2022-07-23T15:53:32;26.80;94.30
9175;DHT22;54374;50.196;8.050;2022-07-23T15:55:59;26.90;94.80
9175;DHT22;54374;50.196;8.050;2022-07-23T15:58:27;27.20;94.40
9175;DHT22;54374;50.196;8.050;2022-07-23T16:00:54;27.40;95.40
9175;DHT22;54374;50.196;8.050;2022-07-23T16:03:23;27.50;94.10